Time;durP1;ratioP1;P1;durP2;ratioP2;P2;SDS_P1;SDS_P2;PMS_P1;PMS_P2;Temp;Humidity;BMP_temperature;BMP_pressure;BME280_temperature;BME280_humidity;BME280_pressure;Samples;Min_cycle;Max_cycle;Signal;HPM_P1;HPM_P2
2022/09/04 00:01:36;;;;;;;2.10;1.00;;;18.90;99.90;;;;;;5066419;28;20486;-67
2022/09/04 00:04:08;;;;;;;4.63;0.98;;;18.80;99.90;;;;;;5066181;28;20426;-67
2022/09/04 00:06:41;;;;;;;2.08;0.85;;;18.80;99.90;;;;;;5067685;28;20391;-67
2022/09/04 00:09:21;;;;;;;2.45;1.05;;;18.80;99.90;;;;;;5067586;28;20392;-67
2022/09/04 00:12:07;;;;;;;3.95;1.30;;;18.70;99.90;;;;;;5066369;28;20395;-67
2022/09/04 00:14:45;;;;;;;1.40;0.80;;;18.60;99.90;;;;;;5067215;28;20413;-68
2022/09/04 00:17:20;;;;;;;2.08;0.98;;;18.70;99.90;;;;;;5069076;28;20457;-67
2022/09/04 00:19:55;;;;;;;1.70;0.93;;;18.60;99.90;;;;;;5067552;28;20380;-67
2022/09/04 00:22:36;;;;;;;1.10;0.80;;;18.60;99.90;;;;;;5068211;28;20376;-68
2022/09/04 00:25:06;;;;;;;4.10;1.10;;;18.60;99.90;;;;;;5066099;28;20673;-68
2022/09/04 00:27:43;;;;;;;2.35;1.00;;;18.60;99.90;;;;;;5067365;28;20383;-68
2022/09/04 00:30:19;;;;;;;1.83;0.80;;;18.60;99.90;;;;;;5067808;28;20388;-68
2022/09/04 00:32:48;;;;;;;3.90;1.00;;;18.60;99.90;;;;;;5069832;28;20402;-67
2022/09/04 00:35:30;;;;;;;3.55;1.00;;;18.60;99.90;;;;;;5070792;28;20463;-68
2022/09/04 00:38:10;;;;;;;2.80;1.03;;;18.50;99.90;;;;;;5069126;28;20585;-67
2022/09/04 00:41:15;;;;;;;1.20;0.80;;;18.50;99.90;;;;;;5067109;28;20386;-66
2022/09/04 00:44:04;;;;;;;1.38;0.80;;;18.50;99.90;;;;;;5068934;28;20411;-66
2022/09/04 00:46:46;;;;;;;1.45;0.73;;;18.50;99.90;;;;;;5062336;28;20391;-66
2022/09/04 00:49:35;;;;;;;1.48;0.70;;;18.40;99.90;;;;;;5069057;28;20399;-66
2022/09/04 00:52:28;;;;;;;1.50;0.85;;;18.40;99.90;;;;;;5068123;28;20388;-66
2022/09/04 00:55:40;;;;;;;2.58;0.90;;;18.30;99.90;;;;;;5067218;28;20695;-66
2022/09/04 00:58:15;;;;;;;2.28;1.13;;;18.30;99.90;;;;;;5010115;28;20380;-67
2022/09/04 01:00:45;;;;;;;2.72;0.80;;;18.30;99.90;;;;;;5068941;28;20384;-67
2022/09/04 01:03:32;;;;;;;2.70;0.80;;;18.20;99.90;;;;;;5069423;28;20709;-67
2022/09/04 01:06:37;;;;;;;1.80;0.80;;;18.20;99.90;;;;;;5071064;28;20383;-67
2022/09/04 01:09:41;;;;;;;1.30;0.80;;;18.20;99.90;;;;;;5012401;28;20521;-67
2022/09/04 01:12:31;;;;;;;2.53;0.95;;;18.20;99.90;;;;;;5029374;28;20405;-67
2022/09/04 01:15:22;;;;;;;4.00;1.00;;;18.20;99.90;;;;;;5064139;28;20407;-67
2022/09/04 01:18:13;;;;;;;1.73;0.90;;;18.20;99.90;;;;;;5070657;28;20810;-67
2022/09/04 01:20:57;;;;;;;1.15;0.90;;;18.10;99.90;;;;;;5070381;28;20772;-67
2022/09/04 01:23:23;;;;;;;1.40;0.80;;;18.10;99.90;;;;;;5070676;28;20384;-67
2022/09/04 01:25:59;;;;;;;2.57;0.90;;;18.00;99.90;;;;;;5068815;28;20469;-67
2022/09/04 01:28:50;;;;;;;1.77;0.80;;;18.00;99.90;;;;;;5069663;28;20380;-67
2022/09/04 01:31:36;;;;;;;1.92;0.80;;;18.00;99.90;;;;;;5069914;28;20376;-67
2022/09/04 01:34:27;;;;;;;1.00;0.82;;;18.00;99.90;;;;;;5067583;28;20419;-67
2022/09/04 01:37:18;;;;;;;0.80;0.70;;;18.00;99.90;;;;;;5068126;28;20367;-67
2022/09/04 01:39:51;;;;;;;1.33;0.80;;;18.00;99.90;;;;;;5068289;28;20387;-67
2022/09/04 01:42:30;;;;;;;1.10;0.90;;;18.00;99.90;;;;;;5067019;28;20489;-67
2022/09/04 01:44:56;;;;;;;1.95;0.80;;;17.90;99.90;;;;;;5068558;28;20478;-67
2022/09/04 01:47:29;;;;;;;2.80;0.88;;;17.90;99.90;;;;;;5069661;28;20491;-68
2022/09/04 01:50:08;;;;;;;0.95;0.80;;;17.90;99.90;;;;;;5072247;28;20486;-67
2022/09/04 01:52:37;;;;;;;1.30;0.70;;;17.90;99.90;;;;;;5074776;28;20413;-68
2022/09/04 01:55:40;;;;;;;1.30;0.80;;;17.80;99.90;;;;;;5073789;28;20438;-67
2022/09/04 01:58:18;;;;;;;1.45;0.82;;;17.80;99.90;;;;;;5071796;28;20379;-67
2022/09/04 02:00:59;;;;;;;1.88;0.90;;;17.80;99.90;;;;;;5072751;28;20391;-67
2022/09/04 02:03:40;;;;;;;1.13;0.87;;;17.70;99.90;;;;;;5071088;28;20427;-67
2022/09/04 02:06:29;;;;;;;1.60;0.80;;;17.70;99.90;;;;;;5072137;28;20384;-67
2022/09/04 02:09:11;;;;;;;0.75;0.70;;;17.70;99.90;;;;;;5072957;28;20386;-67
2022/09/04 02:11:47;;;;;;;4.93;0.90;;;17.70;99.90;;;;;;5070602;28;20387;-67
2022/09/04 02:14:38;;;;;;;1.80;0.80;;;17.70;99.90;;;;;;5071427;28;20402;-67
2022/09/04 02:17:17;;;;;;;1.05;0.70;;;17.60;99.90;;;;;;5074811;28;20822;-67
2022/09/04 02:20:06;;;;;;;1.10;0.82;;;17.60;99.90;;;;;;5075532;28;20462;-67
2022/09/04 02:22:42;;;;;;;1.70;0.90;;;17.60;99.90;;;;;;5077890;28;20463;-67
2022/09/04 02:25:26;;;;;;;0.80;0.70;;;17.60;99.90;;;;;;5077251;28;20387;-68
2022/09/04 02:28:34;;;;;;;3.55;1.00;;;17.50;99.90;;;;;;5077158;28;20407;-68
2022/09/04 02:31:09;;;;;;;2.10;0.93;;;17.50;99.90;;;;;;5075196;28;20394;-68
2022/09/04 02:33:50;;;;;;;1.20;0.70;;;17.50;99.90;;;;;;5074772;28;20509;-68
2022/09/04 02:36:32;;;;;;;1.20;0.80;;;17.50;99.90;;;;;;5074047;28;20482;-68
2022/09/04 02:39:08;;;;;;;1.50;0.80;;;17.40;99.90;;;;;;5071570;28;20787;-68
2022/09/04 02:42:22;;;;;;;1.60;1.00;;;17.40;99.90;;;;;;5071720;28;20475;-68
2022/09/04 02:45:03;;;;;;;2.90;0.85;;;17.40;99.90;;;;;;5058951;28;20372;-68
2022/09/04 02:47:44;;;;;;;2.17;0.90;;;17.40;99.90;;;;;;5073095;28;20429;-68
2022/09/04 02:50:45;;;;;;;2.67;0.85;;;17.30;99.90;;;;;;5073411;28;20438;-68
2022/09/04 02:53:40;;;;;;;1.98;0.70;;;17.30;99.90;;;;;;5074196;28;20399;-68
2022/09/04 02:56:30;;;;;;;2.70;0.88;;;17.30;99.90;;;;;;5075115;28;20772;-68
2022/09/04 02:59:14;;;;;;;1.63;0.88;;;17.30;99.90;;;;;;5075366;28;20375;-68
2022/09/04 03:01:59;;;;;;;0.85;0.70;;;17.20;99.90;;;;;;5073903;28;20375;-68
2022/09/04 03:04:54;;;;;;;1.13;0.88;;;17.30;99.90;;;;;;5074557;28;20408;-68
2022/09/04 03:07:30;;;;;;;1.50;1.00;;;17.20;99.90;;;;;;5075563;28;20388;-68
2022/09/04 03:10:11;;;;;;;1.60;0.70;;;17.20;99.90;;;;;;5073891;28;20811;-68
2022/09/04 03:12:55;;;;;;;2.50;0.70;;;17.20;99.90;;;;;;5074223;28;20616;-68
2022/09/04 03:15:26;;;;;;;2.00;1.00;;;17.10;99.90;;;;;;5074769;28;20435;-68
2022/09/04 03:18:05;;;;;;;1.10;0.80;;;17.10;99.90;;;;;;5075157;28;20402;-68
2022/09/04 03:20:43;;;;;;;0.90;0.73;;;17.00;99.90;;;;;;5076454;28;20382;-67
2022/09/04 03:23:19;;;;;;;3.10;0.85;;;17.00;99.90;;;;;;5074874;28;20609;-67
2022/09/04 03:26:13;;;;;;;1.60;0.80;;;17.00;99.90;;;;;;5074339;28;20407;-68
2022/09/04 03:28:42;;;;;;;1.33;0.90;;;16.90;99.90;;;;;;5074114;28;20380;-67
2022/09/04 03:31:49;;;;;;;0.90;0.90;;;16.90;99.90;;;;;;5072389;28;20393;-68
2022/09/04 03:34:25;;;;;;;1.10;0.90;;;16.90;99.90;;;;;;5069134;28;20417;-67
2022/09/04 03:37:31;;;;;;;2.20;0.93;;;16.90;99.90;;;;;;5072415;28;20678;-68
2022/09/04 03:40:24;;;;;;;1.40;1.00;;;16.80;99.90;;;;;;5014941;28;20395;-68
2022/09/04 03:43:14;;;;;;;1.13;0.80;;;16.70;99.90;;;;;;5072598;28;20389;-68
2022/09/04 03:46:05;;;;;;;1.70;1.00;;;16.70;99.90;;;;;;5076767;28;20467;-68
2022/09/04 03:49:04;;;;;;;1.02;0.90;;;16.70;99.90;;;;;;5075544;28;20391;-68
2022/09/04 03:51:44;;;;;;;2.72;1.05;;;16.60;99.90;;;;;;5074507;28;20410;-68
2022/09/04 03:54:16;;;;;;;2.03;1.38;;;16.50;99.90;;;;;;5071412;28;20448;-68
2022/09/04 03:57:10;;;;;;;2.72;1.60;;;16.50;99.90;;;;;;5072446;28;20482;-68
2022/09/04 04:00:00;;;;;;;3.00;1.80;;;16.50;99.90;;;;;;5072617;28;20425;-68
2022/09/04 04:02:59;;;;;;;3.47;2.10;;;16.40;99.90;;;;;;5070066;28;20717;-68
2022/09/04 04:05:43;;;;;;;4.45;2.70;;;16.50;99.90;;;;;;5071799;28;20748;-68
2022/09/04 04:08:26;;;;;;;2.67;1.70;;;16.40;99.90;;;;;;5071774;28;20789;-68
2022/09/04 04:11:04;;;;;;;2.05;1.15;;;16.40;99.90;;;;;;5073266;28;20561;-69
2022/09/04 04:14:03;;;;;;;1.65;1.05;;;16.40;99.90;;;;;;5070552;28;20525;-68
2022/09/04 04:16:41;;;;;;;1.58;1.38;;;16.40;99.90;;;;;;5068847;28;20441;-68
2022/09/04 04:19:36;;;;;;;2.75;1.73;;;16.30;99.90;;;;;;5065009;28;20823;-68
2022/09/04 04:22:34;;;;;;;1.52;1.30;;;16.30;99.90;;;;;;5080497;28;20663;-68
2022/09/04 04:25:00;;;;;;;1.90;1.30;;;16.30;99.90;;;;;;5064769;28;20703;-68
2022/09/04 04:27:51;;;;;;;2.33;1.17;;;16.30;99.90;;;;;;5065677;28;20399;-68
2022/09/04 04:30:18;;;;;;;1.60;1.08;;;16.30;99.90;;;;;;5066538;28;20388;-68
2022/09/04 04:32:49;;;;;;;1.17;0.95;;;16.30;99.90;;;;;;5069867;28;20427;-68
2022/09/04 04:35:33;;;;;;;3.00;1.17;;;16.20;99.90;;;;;;5070814;28;20800;-68
2022/09/04 04:38:30;;;;;;;1.85;1.20;;;16.20;99.90;;;;;;5070600;28;20914;-68
2022/09/04 04:41:30;;;;;;;1.70;1.10;;;16.20;99.90;;;;;;5084640;28;20660;-68
2022/09/04 04:44:10;;;;;;;1.85;1.20;;;16.10;99.90;;;;;;5080271;28;20582;-68
2022/09/04 04:46:59;;;;;;;1.20;1.00;;;16.10;99.90;;;;;;5066318;28;20387;-68
2022/09/04 04:49:37;;;;;;;2.58;1.30;;;16.10;99.90;;;;;;5065974;28;20728;-68
2022/09/04 04:52:14;;;;;;;4.10;1.13;;;16.10;99.90;;;;;;5063794;28;20674;-68
2022/09/04 04:54:50;;;;;;;1.67;1.07;;;16.10;99.90;;;;;;5063884;28;20621;-68
2022/09/04 04:57:28;;;;;;;2.10;1.10;;;16.10;99.90;;;;;;5064049;28;20651;-68
2022/09/04 05:00:18;;;;;;;2.80;1.20;;;16.10;99.90;;;;;;5066687;28;20441;-68
2022/09/04 05:03:02;;;;;;;1.25;0.77;;;16.10;99.90;;;;;;5065247;28;20476;-68
2022/09/04 05:06:05;;;;;;;2.65;1.10;;;16.10;99.90;;;;;;5066917;28;20445;-68
2022/09/04 05:08:50;;;;;;;1.25;0.90;;;16.10;99.90;;;;;;5079505;28;20495;-68
2022/09/04 05:12:00;;;;;;;1.63;1.00;;;16.10;99.90;;;;;;5065163;28;20551;-68
2022/09/04 05:14:40;;;;;;;2.50;0.97;;;16.10;99.90;;;;;;5063248;28;20400;-68
2022/09/04 05:17:32;;;;;;;2.45;1.05;;;16.10;99.90;;;;;;5065226;28;20647;-68
2022/09/04 05:20:31;;;;;;;1.40;1.00;;;16.10;99.90;;;;;;5065992;28;20564;-68
2022/09/04 05:23:07;;;;;;;1.33;0.88;;;16.10;99.90;;;;;;5066976;28;20464;-68
2022/09/04 05:25:40;;;;;;;1.65;1.00;;;16.10;99.90;;;;;;5065950;28;20739;-69
2022/09/04 05:28:21;;;;;;;1.65;1.10;;;16.20;99.90;;;;;;5067616;28;20481;-68
2022/09/04 05:30:54;;;;;;;1.55;0.95;;;16.20;99.90;;;;;;5085520;28;20469;-69
2022/09/04 05:33:33;;;;;;;4.30;1.00;;;16.20;99.90;;;;;;5068306;28;20658;-69
2022/09/04 05:36:17;;;;;;;2.25;1.10;;;16.20;99.90;;;;;;5067505;28;20775;-69
2022/09/04 05:38:59;;;;;;;2.40;0.95;;;16.20;99.90;;;;;;5067590;28;20684;-68
2022/09/04 05:41:52;;;;;;;0.80;0.80;;;16.30;99.90;;;;;;5068130;28;20384;-69
2022/09/04 05:44:37;;;;;;;2.00;1.00;;;16.30;99.90;;;;;;5068262;28;20413;-68
2022/09/04 05:47:30;;;;;;;1.40;0.90;;;16.40;99.90;;;;;;5065721;28;20638;-69
2022/09/04 05:50:18;;;;;;;2.33;0.95;;;16.40;99.90;;;;;;5058956;28;20398;-68
2022/09/04 05:53:05;;;;;;;2.95;0.90;;;16.50;99.90;;;;;;5067346;28;20478;-68
2022/09/04 05:55:45;;;;;;;1.35;0.80;;;16.50;99.90;;;;;;5067452;28;20396;-68
2022/09/04 05:59:04;;;;;;;1.80;1.00;;;16.50;99.90;;;;;;5067992;28;20380;-68
2022/09/04 06:01:38;;;;;;;1.50;1.10;;;16.60;99.90;;;;;;5039152;28;20382;-69
2022/09/04 06:04:29;;;;;;;0.70;0.70;;;16.60;99.90;;;;;;5069229;28;20419;-68
2022/09/04 06:07:16;;;;;;;1.27;1.00;;;16.60;99.90;;;;;;5068050;28;20473;-69
2022/09/04 06:10:11;;;;;;;2.10;1.02;;;16.70;99.90;;;;;;5068071;28;20890;-69
2022/09/04 06:13:03;;;;;;;1.60;0.90;;;16.70;99.90;;;;;;5059579;28;20537;-69
2022/09/04 06:15:54;;;;;;;2.75;1.10;;;16.70;99.90;;;;;;5066282;28;20388;-69
2022/09/04 06:18:52;;;;;;;3.08;0.90;;;16.70;99.90;;;;;;5066780;28;20459;-69
2022/09/04 06:21:52;;;;;;;1.02;0.90;;;16.80;99.90;;;;;;5065831;28;20396;-68
2022/09/04 06:24:43;;;;;;;1.30;0.95;;;16.80;99.90;;;;;;5065024;28;20494;-69
2022/09/04 06:27:27;;;;;;;1.52;0.73;;;16.80;99.90;;;;;;5066618;28;20755;-69
2022/09/04 06:30:10;;;;;;;2.58;1.02;;;16.80;99.90;;;;;;5066129;28;20383;-68
2022/09/04 06:33:14;;;;;;;1.58;1.30;;;16.90;99.90;;;;;;5065720;28;20409;-70
2022/09/04 06:36:01;;;;;;;2.90;1.10;;;16.90;99.90;;;;;;5062703;28;20392;-69
2022/09/04 06:38:30;;;;;;;2.33;0.82;;;16.90;99.90;;;;;;5066512;28;20445;-70
2022/09/04 06:41:28;;;;;;;1.70;1.00;;;16.90;99.90;;;;;;5063957;28;20852;-69
2022/09/04 06:44:22;;;;;;;1.80;1.13;;;16.90;99.90;;;;;;5062355;28;20591;-67
2022/09/04 06:47:03;;;;;;;2.67;1.17;;;16.90;99.90;;;;;;5067066;28;20471;-68
2022/09/04 06:49:38;;;;;;;2.65;1.00;;;17.00;99.90;;;;;;5064330;28;20653;-68
2022/09/04 06:52:46;;;;;;;2.80;0.98;;;17.00;99.90;;;;;;5063620;28;20384;-68
2022/09/04 06:55:27;;;;;;;1.58;1.00;;;17.10;99.90;;;;;;5067595;28;20430;-68
2022/09/04 06:58:23;;;;;;;1.33;1.02;;;17.10;99.90;;;;;;5070256;28;20375;-68
2022/09/04 07:01:07;;;;;;;1.03;0.93;;;17.20;99.90;;;;;;5070428;28;20418;-68
2022/09/04 07:04:10;;;;;;;2.15;1.02;;;17.20;99.90;;;;;;5085998;28;20426;-68
2022/09/04 07:07:05;;;;;;;2.00;1.20;;;17.30;99.90;;;;;;5069374;28;20460;-68
2022/09/04 07:09:58;;;;;;;2.45;1.10;;;17.20;99.90;;;;;;5069113;28;20521;-68
2022/09/04 07:12:51;;;;;;;2.37;1.20;;;17.20;99.90;;;;;;5067815;28;20384;-67
2022/09/04 07:15:32;;;;;;;4.07;1.60;;;17.30;99.90;;;;;;5065169;28;20411;-67
2022/09/04 07:18:35;;;;;;;1.80;1.10;;;17.30;99.90;;;;;;5063144;28;20450;-68
2022/09/04 07:21:19;;;;;;;2.90;1.60;;;17.40;99.90;;;;;;5061780;28;20921;-68
2022/09/04 07:24:03;;;;;;;1.70;1.20;;;17.40;99.90;;;;;;5059503;28;20772;-68
2022/09/04 07:26:53;;;;;;;1.40;1.20;;;17.50;99.90;;;;;;5057461;28;20491;-68
2022/09/04 07:30:04;;;;;;;3.08;1.40;;;17.50;99.90;;;;;;5057494;28;20678;-68
2022/09/04 07:32:54;;;;;;;2.17;1.48;;;17.60;99.90;;;;;;5056726;28;20492;-68
2022/09/04 07:35:41;;;;;;;1.57;1.30;;;17.70;99.90;;;;;;5058808;28;20496;-68
2022/09/04 07:38:36;;;;;;;2.13;1.30;;;17.70;99.90;;;;;;5061517;28;20399;-69
2022/09/04 07:41:09;;;;;;;2.25;1.40;;;17.80;99.90;;;;;;5061167;28;20425;-68
2022/09/04 07:44:12;;;;;;;1.60;1.40;;;17.90;99.90;;;;;;5063547;28;20646;-68
2022/09/04 07:47:13;;;;;;;2.28;1.60;;;17.90;99.90;;;;;;5064021;28;20613;-68
2022/09/04 07:50:16;;;;;;;1.83;1.40;;;18.00;99.90;;;;;;5062059;28;20442;-69
2022/09/04 07:52:49;;;;;;;4.00;1.70;;;18.00;99.90;;;;;;5056456;28;20648;-68
2022/09/04 07:55:25;;;;;;;2.13;1.38;;;18.10;99.90;;;;;;5057205;28;20495;-68
2022/09/04 07:58:01;;;;;;;3.20;1.73;;;18.20;99.90;;;;;;5061677;28;20375;-69
2022/09/04 08:00:33;;;;;;;3.05;1.40;;;18.20;99.90;;;;;;5060599;28;20379;-68
2022/09/04 08:03:20;;;;;;;2.25;1.58;;;18.20;99.90;;;;;;5058510;28;20499;-69
2022/09/04 08:05:54;;;;;;;1.88;1.48;;;18.20;99.90;;;;;;5059760;28;20603;-68
2022/09/04 08:08:38;;;;;;;2.05;1.60;;;18.30;99.90;;;;;;5059682;28;20386;-69
2022/09/04 08:11:28;;;;;;;3.60;2.00;;;18.40;99.90;;;;;;5058463;28;20741;-68
2022/09/04 08:14:27;;;;;;;2.78;1.50;;;18.40;99.90;;;;;;5061792;28;20399;-68
2022/09/04 08:17:16;;;;;;;4.10;2.13;;;18.40;99.90;;;;;;5059802;28;20464;-68
2022/09/04 08:20:04;;;;;;;3.80;1.80;;;18.50;99.90;;;;;;5060573;28;20652;-69
2022/09/04 08:22:54;;;;;;;3.10;1.80;;;18.60;99.90;;;;;;5061589;28;20380;-68
2022/09/04 08:25:45;;;;;;;5.07;1.90;;;18.60;99.90;;;;;;5060992;28;20675;-68
2022/09/04 08:28:36;;;;;;;3.30;2.13;;;18.70;99.90;;;;;;5061658;28;20391;-69
2022/09/04 08:31:23;;;;;;;2.00;1.60;;;18.70;99.90;;;;;;5061536;28;20384;-69
2022/09/04 08:34:14;;;;;;;2.97;1.95;;;18.80;99.90;;;;;;5061761;28;20677;-69
2022/09/04 08:36:57;;;;;;;2.33;2.00;;;18.90;99.90;;;;;;5060046;28;20612;-69
2022/09/04 08:39:39;;;;;;;3.10;2.08;;;18.90;99.90;;;;;;5060658;28;20382;-69
2022/09/04 08:42:42;;;;;;;4.43;2.22;;;18.90;99.90;;;;;;5076294;28;20460;-69
2022/09/04 08:45:36;;;;;;;2.45;1.92;;;18.90;99.90;;;;;;5058518;28;20660;-67
2022/09/04 08:48:34;;;;;;;3.25;1.90;;;19.00;99.90;;;;;;5058965;28;20441;-67
2022/09/04 08:51:38;;;;;;;2.42;1.80;;;19.00;99.90;;;;;;5058717;28;20387;-68
2022/09/04 08:54:30;;;;;;;2.00;1.90;;;19.10;99.90;;;;;;5059955;28;20787;-68
2022/09/04 08:57:32;;;;;;;2.30;1.85;;;19.20;99.90;;;;;;5058442;28;20376;-68
2022/09/04 09:00:09;;;;;;;3.53;1.95;;;19.20;99.90;;;;;;5056304;28;20410;-68
2022/09/04 09:02:53;;;;;;;2.15;1.80;;;19.30;99.90;;;;;;5058838;28;20593;-67
2022/09/04 09:05:28;;;;;;;2.17;1.90;;;19.40;99.90;;;;;;5061018;28;20949;-68
2022/09/04 09:08:12;;;;;;;3.22;2.00;;;19.50;99.90;;;;;;5059061;28;20557;-68
2022/09/04 09:11:00;;;;;;;3.97;2.00;;;19.60;99.90;;;;;;5059721;28;20376;-68
2022/09/04 09:13:47;;;;;;;2.92;2.50;;;19.60;99.90;;;;;;5060451;28;20620;-68
2022/09/04 09:16:35;;;;;;;2.08;1.88;;;19.60;99.90;;;;;;5060228;28;20379;-68
2022/09/04 09:19:32;;;;;;;2.28;2.00;;;19.70;99.90;;;;;;5058767;28;20400;-68
2022/09/04 09:22:10;;;;;;;3.22;2.25;;;19.80;99.90;;;;;;5058142;28;20554;-67
2022/09/04 09:25:10;;;;;;;2.63;1.80;;;19.80;99.90;;;;;;5060384;28;20379;-68
2022/09/04 09:28:06;;;;;;;4.07;2.20;;;19.90;99.90;;;;;;5060672;28;20380;-67
2022/09/04 09:30:54;;;;;;;3.65;2.08;;;19.90;99.90;;;;;;5065377;28;20386;-67
2022/09/04 09:33:46;;;;;;;4.18;2.30;;;20.00;99.90;;;;;;5065589;28;20490;-69
2022/09/04 09:36:51;;;;;;;3.17;2.10;;;20.10;99.90;;;;;;5065301;28;20889;-69
2022/09/04 09:39:39;;;;;;;2.30;1.80;;;20.10;99.90;;;;;;5064019;28;20380;-69
2022/09/04 09:42:28;;;;;;;2.95;2.08;;;20.10;99.90;;;;;;5064316;28;20763;-69
2022/09/04 09:45:13;;;;;;;2.10;1.90;;;20.20;99.90;;;;;;5062891;28;20849;-69
2022/09/04 09:47:51;;;;;;;2.97;2.10;;;20.30;99.90;;;;;;5064719;28;20623;-69
2022/09/04 09:50:46;;;;;;;2.92;2.05;;;20.30;99.90;;;;;;5064066;28;20468;-69
2022/09/04 09:53:34;;;;;;;5.40;2.13;;;20.30;99.90;;;;;;5064516;28;20998;-69
2022/09/04 09:56:18;;;;;;;2.95;2.00;;;20.50;99.90;;;;;;5066945;28;20763;-69
2022/09/04 09:58:46;;;;;;;3.67;2.22;;;20.40;99.90;;;;;;5068287;28;20386;-69
2022/09/04 10:01:24;;;;;;;3.20;1.90;;;20.50;99.90;;;;;;5067437;28;20415;-69
2022/09/04 10:04:17;;;;;;;2.63;1.80;;;20.60;99.90;;;;;;5067726;28;20966;-69
2022/09/04 10:07:13;;;;;;;3.22;2.30;;;20.60;99.90;;;;;;5067104;28;20506;-69
2022/09/04 10:10:02;;;;;;;4.03;1.90;;;20.70;99.90;;;;;;5046028;28;20380;-69
2022/09/04 10:13:05;;;;;;;2.75;2.17;;;20.70;99.90;;;;;;5070617;28;20486;-69
2022/09/04 10:15:49;;;;;;;2.50;1.98;;;20.90;99.90;;;;;;5070821;28;20395;-69
2022/09/04 10:18:50;;;;;;;5.05;2.10;;;21.00;99.90;;;;;;5070493;28;20383;-69
2022/09/04 10:21:17;;;;;;;2.53;2.00;;;21.10;99.90;;;;;;5070542;28;20418;-69
2022/09/04 10:23:59;;;;;;;2.97;2.22;;;21.10;99.90;;;;;;5071584;28;20468;-69
2022/09/04 10:26:51;;;;;;;2.83;2.00;;;21.10;99.90;;;;;;5072122;28;20383;-69
2022/09/04 10:29:54;;;;;;;2.25;1.90;;;21.20;99.90;;;;;;5071192;28;20410;-69
2022/09/04 10:32:31;;;;;;;2.22;1.83;;;21.20;99.90;;;;;;5069886;28;20502;-69
2022/09/04 10:35:16;;;;;;;3.25;2.00;;;21.20;99.90;;;;;;5068320;28;20408;-69
2022/09/04 10:38:03;;;;;;;3.90;2.05;;;21.20;99.90;;;;;;5066387;28;20395;-71
2022/09/04 10:40:43;;;;;;;2.33;2.03;;;21.30;99.90;;;;;;5068532;28;20376;-71
2022/09/04 10:43:24;;;;;;;3.77;2.00;;;21.40;99.90;;;;;;5068527;28;20696;-71
2022/09/04 10:46:14;;;;;;;2.10;1.80;;;21.50;99.90;;;;;;5065681;28;21008;-71
2022/09/04 10:49:07;;;;;;;2.75;2.17;;;21.40;99.90;;;;;;5064852;28;20812;-71
2022/09/04 10:52:04;;;;;;;2.17;1.98;;;21.50;99.90;;;;;;5062459;28;20449;-71
2022/09/04 10:54:46;;;;;;;3.42;2.05;;;21.70;99.90;;;;;;5062578;28;20403;-63
2022/09/04 10:57:31;;;;;;;5.30;2.03;;;22.00;99.90;;;;;;5061606;28;20643;-63
2022/09/04 11:00:12;;;;;;;3.88;1.80;;;22.30;99.90;;;;;;5063206;28;20478;-63
2022/09/04 11:02:44;;;;;;;2.55;1.95;;;22.60;99.90;;;;;;5059122;28;20660;-63
2022/09/04 11:05:25;;;;;;;5.90;1.80;;;22.70;99.90;;;;;;5060312;28;20687;-64
2022/09/04 11:08:05;;;;;;;2.97;1.90;;;22.80;99.90;;;;;;5062349;28;20892;-64
2022/09/04 11:11:03;;;;;;;2.63;1.97;;;23.10;99.90;;;;;;5059487;28;20423;-62
2022/09/04 11:13:55;;;;;;;3.60;2.17;;;23.20;99.90;;;;;;5049290;28;20537;-61
2022/09/04 11:17:04;;;;;;;3.35;2.30;;;23.30;99.90;;;;;;5060208;28;20380;-61
2022/09/04 11:19:52;;;;;;;5.05;2.13;;;23.50;99.90;;;;;;5063743;28;20477;-61
2022/09/04 11:22:52;;;;;;;3.20;2.07;;;23.70;99.90;;;;;;5058347;28;20412;-62
2022/09/04 11:26:07;;;;;;;3.03;2.00;;;23.70;99.90;;;;;;5060265;28;20395;-70
2022/09/04 11:28:55;;;;;;;2.70;2.03;;;23.90;99.90;;;;;;5063509;28;20490;-70
2022/09/04 11:31:40;;;;;;;3.60;2.00;;;24.00;99.90;;;;;;5065582;28;20384;-70
2022/09/04 11:34:37;;;;;;;3.15;2.00;;;24.10;99.90;;;;;;5065696;28;20439;-70
2022/09/04 11:37:06;;;;;;;2.10;1.90;;;24.20;99.90;;;;;;5066930;28;20388;-70
2022/09/04 11:39:43;;;;;;;2.60;1.90;;;24.20;99.90;;;;;;5068039;28;20386;-70
2022/09/04 11:42:27;;;;;;;3.45;2.03;;;24.30;99.90;;;;;;5067758;28;20806;-70
2022/09/04 11:45:27;;;;;;;2.78;1.88;;;24.70;99.90;;;;;;5065120;28;20410;-70
2022/09/04 11:48:39;;;;;;;3.90;2.20;;;24.90;99.90;;;;;;5066432;28;20400;-70
2022/09/04 11:51:31;;;;;;;2.00;1.80;;;25.10;99.90;;;;;;5063983;28;20849;-70
2022/09/04 11:54:14;;;;;;;3.45;2.13;;;25.30;99.90;;;;;;5063260;28;20685;-70
2022/09/04 11:56:53;;;;;;;3.63;2.45;;;25.30;99.90;;;;;;5063844;28;20379;-71
2022/09/04 11:59:56;;;;;;;3.53;2.20;;;25.40;99.90;;;;;;5063921;28;20391;-69
2022/09/04 12:02:34;;;;;;;3.25;2.10;;;25.60;99.90;;;;;;5063230;28;20419;-69
2022/09/04 12:05:40;;;;;;;2.97;1.90;;;25.60;99.90;;;;;;5066313;28;20448;-70
2022/09/04 12:08:52;;;;;;;2.67;1.83;;;25.70;99.90;;;;;;5065413;28;20472;-70
2022/09/04 12:11:39;;;;;;;1.90;1.80;;;26.00;99.90;;;;;;5030958;28;20387;-70
2022/09/04 12:14:27;;;;;;;2.05;1.77;;;26.10;99.90;;;;;;5062598;28;20412;-70
2022/09/04 12:17:14;;;;;;;2.60;1.70;;;26.30;99.90;;;;;;5065596;28;20380;-69
2022/09/04 12:20:15;;;;;;;2.50;1.90;;;26.20;99.90;;;;;;5063207;28;20827;-69
2022/09/04 12:23:00;;;;;;;2.65;2.20;;;26.20;99.90;;;;;;5064803;28;20520;-67
2022/09/04 12:25:54;;;;;;;1.77;1.60;;;26.30;99.90;;;;;;5064368;28;20384;-69
2022/09/04 12:28:51;;;;;;;2.17;1.90;;;26.60;99.90;;;;;;5062460;28;20383;-67
2022/09/04 12:31:16;;;;;;;2.97;2.00;;;27.00;99.40;;;;;;5061858;28;21043;-67
2022/09/04 12:33:58;;;;;;;4.73;2.00;;;27.20;99.00;;;;;;5063762;28;20416;-67
2022/09/04 12:36:51;;;;;;;3.60;2.10;;;27.30;99.00;;;;;;5065275;28;20686;-67
2022/09/04 12:39:35;;;;;;;3.80;2.55;;;27.50;98.10;;;;;;5060983;28;20683;-67
2022/09/04 12:42:21;;;;;;;2.50;2.00;;;27.60;97.70;;;;;;5062692;28;20725;-67
2022/09/04 12:45:05;;;;;;;3.67;1.92;;;27.80;98.30;;;;;;5063555;28;20633;-68
2022/09/04 12:47:44;;;;;;;2.80;2.25;;;28.00;97.10;;;;;;5063101;28;20985;-68
2022/09/04 12:50:36;;;;;;;4.60;2.40;;;28.10;96.50;;;;;;5061072;28;20791;-68
2022/09/04 12:53:27;;;;;;;2.53;2.33;;;28.00;96.10;;;;;;5059471;28;20530;-68
2022/09/04 12:56:24;;;;;;;2.40;2.15;;;28.30;96.20;;;;;;5056117;28;20482;-68
2022/09/04 12:59:12;;;;;;;1.98;1.70;;;28.40;96.00;;;;;;5056205;28;20484;-67
2022/09/04 13:01:44;;;;;;;7.53;2.55;;;28.50;96.10;;;;;;5059210;28;20376;-67
2022/09/04 13:04:32;;;;;;;4.38;2.40;;;28.50;97.30;;;;;;5058467;28;20442;-67
2022/09/04 13:07:15;;;;;;;2.85;2.47;;;28.70;95.10;;;;;;5058993;28;20395;-67
2022/09/04 13:10:33;;;;;;;2.70;2.50;;;28.90;94.80;;;;;;5059494;28;20770;-67
2022/09/04 13:13:05;;;;;;;3.80;2.00;;;29.40;94.50;;;;;;5005186;28;20431;-68
2022/09/04 13:16:10;;;;;;;1.92;1.80;;;29.50;94.20;;;;;;5048327;28;20431;-67
2022/09/04 13:18:50;;;;;;;3.15;2.00;;;29.30;93.30;;;;;;5049288;28;20569;-67
2022/09/04 13:21:41;;;;;;;2.05;1.50;;;29.30;93.10;;;;;;5053498;28;20408;-67
2022/09/04 13:24:34;;;;;;;3.78;1.70;;;29.30;92.50;;;;;;5069903;28;20384;-67
2022/09/04 13:27:06;;;;;;;1.40;1.30;;;29.50;91.90;;;;;;5056059;28;20872;-67
2022/09/04 13:30:00;;;;;;;2.47;1.98;;;29.80;91.60;;;;;;5056129;28;20379;-67
2022/09/04 13:32:49;;;;;;;2.85;2.20;;;30.00;90.70;;;;;;5057145;28;20392;-67
2022/09/04 13:35:30;;;;;;;2.30;2.00;;;30.00;89.70;;;;;;5063064;28;20402;-67
2022/09/04 13:38:04;;;;;;;2.67;2.10;;;30.30;90.20;;;;;;5062481;28;20556;-67
2022/09/04 13:40:59;;;;;;;2.20;1.90;;;30.60;88.50;;;;;;5059152;28;20399;-67
2022/09/04 13:43:33;;;;;;;2.10;1.77;;;30.40;89.40;;;;;;5057485;28;20412;-67
2022/09/04 13:46:05;;;;;;;3.20;1.80;;;30.60;89.20;;;;;;5054767;28;20380;-67
2022/09/04 13:48:39;;;;;;;1.92;1.60;;;30.70;86.40;;;;;;5054598;28;20461;-67
2022/09/04 13:51:09;;;;;;;1.60;1.50;;;30.80;84.70;;;;;;5054482;28;20391;-67
2022/09/04 13:53:52;;;;;;;4.65;2.03;;;30.90;83.60;;;;;;5056560;28;20455;-67
2022/09/04 13:56:27;;;;;;;1.60;1.50;;;30.30;83.90;;;;;;5056986;28;20543;-68
2022/09/04 13:58:59;;;;;;;5.28;2.17;;;30.10;84.40;;;;;;5075962;28;20372;-68
2022/09/04 14:01:28;;;;;;;1.87;1.77;;;30.20;85.60;;;;;;5059883;28;20405;-68
2022/09/04 14:03:58;;;;;;;2.13;1.92;;;30.10;84.80;;;;;;5075227;28;20489;-67
2022/09/04 14:06:26;;;;;;;2.20;2.00;;;30.30;85.40;;;;;;5058398;28;20486;-68
2022/09/04 14:08:54;;;;;;;2.33;2.03;;;30.50;83.90;;;;;;5058666;28;20832;-67
2022/09/04 14:11:49;;;;;;;2.00;1.73;;;31.00;83.80;;;;;;5058990;28;20391;-68
2022/09/04 14:14:32;;;;;;;2.40;1.88;;;30.60;82.40;;;;;;5075651;28;20819;-68
2022/09/04 14:16:58;;;;;;;2.00;1.80;;;30.10;83.20;;;;;;5059455;28;20383;-68
2022/09/04 14:19:49;;;;;;;2.10;1.88;;;29.70;85.10;;;;;;5059692;28;20579;-68
2022/09/04 14:22:41;;;;;;;1.98;1.80;;;29.20;86.40;;;;;;5059827;28;20449;-68
2022/09/04 14:25:33;;;;;;;3.55;1.98;;;29.20;87.00;;;;;;5058160;28;20380;-67
2022/09/04 14:28:19;;;;;;;2.75;1.70;;;29.50;87.70;;;;;;5057303;28;20526;-68